AirNav   Everest Fuels
 
 1080 users online  

OI91 Hammond Airport
Yellow Springs, Ohio, USA

GOING TO YELLOW SPRINGS?


FAA INFORMATION EFFECTIVE 26 JANUARY 2023

Location

FAA Identifier: OI91
Lat/Long: 39-46-47.0000N 083-54-33.0000W
39-46.783333N 083-54.550000W
39.7797222,-83.9091667
(estimated)
Elevation: 990 ft. / 302 m (estimated)
Variation: 04W (1990)
From city: 2 miles SW of YELLOW SPRINGS, OH
Time zone: UTC -5 (UTC -4 during Daylight Saving Time)
Zip code: 45387

Airport Operations

Airport use: Private use. Permission required prior to landing
Activation date: 08/1994
Control tower: no
ARTCC: INDIANAPOLIS CENTER
FSS: DAYTON FLIGHT SERVICE STATION
Attendance: UNATNDD
Wind indicator: yes
Segmented circle: no

Airport Communications

WX AWOS-3PT at SGH (5 nm NE): 134.975 (937-324-4532)
WX AWOS-3 at I19 (7 nm SW): 118.525 (937-372-4668)
WX ASOS at DAY (16 nm NW): PHONE 937-415-6819
WX AWOS-3 at I66 (17 nm S): 124.175 (937-382-1376)
WX ASOS at MGY (19 nm SW): 118.375 (937-885-2171)

Nearby radio navigation aids

VOR radial/distance  VOR name  Freq  Var
MXQr351/21.6MIDWEST VOR/DME112.9004W
DQNr123/26.6DAYTON VOR/DME114.5001W
RODr174/31.1ROSEWOOD VORTAC117.5005W

 
NDB name  Hdg/Dist  Freq  Var  ID
COURT HOUSE300/26.241406WCSS -.-. ... ...
HOOK FIELD060/30.023904WHKF .... -.- ..-.

Airport Services

Runway Information

Runway 1/19

Dimensions: 1600 x 60 ft. / 488 x 18 m
Surface: turf
RUNWAY 1  RUNWAY 19
Traffic pattern: leftleft
Displaced threshold: 200 ft.300 ft.
Obstructions: 80 ft. trees15 ft. road

Airport Ownership and Management from official FAA records

Ownership: Privately-owned
Owner: JAMES F HAMMOND
3073 RT 68 N
YELLOW SPRINGS, OH 45387
Phone 513-767-8751
Manager: JAMES F HAMMOND
3073 RT 68 N
YELLOW SPRINGS, OH 45387
Phone 513-767-8751

Airport Operational Statistics

Aircraft based on the field: 5
Single engine airplanes: 5
    

Additional Remarks

FOR CD CTC COLUMBUS APCH AT 614-338-8537

Instrument Procedures

There are no published instrument procedures at OI91.

Some nearby airports with instrument procedures:

KSGH - Springfield/Beckley Municipal Airport (5 nm NE)
I19 - Greene County/Lewis A Jackson Regional Airport (7 nm SW)
KFFO - Wright-Patterson Air Force Base (7 nm NW)
KDAY - James M Cox Dayton International Airport (16 nm NW)
I73 - Moraine Air Park (16 nm W)
I66 - Clinton Field Airport (17 nm S)
KMGY - Dayton/Wright Brothers Airport (19 nm SW)
 
Loc | Ops | Rwys | IFR | FBO | Links
Com | Nav | Svcs | Stats | Notes
Area around OI91 (Hammond Airport)
 
Road maps at: MapQuest Bing Google
 
Aerial photo
No photo
 
Sectional chart

 
Airport distance calculator
Flying to Hammond Airport? Find the distance to fly.

From to OI91

Sunrise and sunset
Times for 08-Feb-2023
 Local
(UTC-5)
 Zulu
(UTC)
Morning civil twilight07:1012:10
Sunrise07:3812:38
Sunset18:0223:02
Evening civil twilight18:3023:30

Current date and time
Zulu (UTC)  09-Feb-2023 01:47:31
Local (UTC-5)  08-Feb-2023 20:47:31
 
METAR
KSGH 
5nm NE 
090140Z AUTO 10006KT 10SM -RA BKN023 OVC050 07/02 A3015 RMK AO2 RAB24 P0000
KFFO 
6nm W 
090116Z 08004KT 10SM -DZ BKN025 BKN060 OVC080 08/01 A3013 RMK AO2A SLP213
KDAY 
16nm NW 
090138Z 10005KT 9SM -RA BKN022 BKN042 OVC070 08/03 A3015 RMK AO2 P0001 T00780028
KMGY 
18nm SW 
090125Z AUTO 09006KT 8SM -RA SCT022 OVC041 08/03 A3013 RMK AO2 P0001 T00830033
TAF
KFFO 
6nm W 
081910Z 0819/1001 14009KT 9999 FEW030 BKN250 QNH3009INS BECMG 0902/0903 10009KT 8000 -RA BR BKN015 OVC045 QNH3004INS BECMG 0904/0905 12012KT 6000 -RA BR OVC007 510102 520303 QNH2986INS BECMG 0908/0909 15012KT 9999 VCSH OVC005 WS015/17040KT 550153 QNH2973INS TEMPO 0911/0914 18015G25KT 4800 SHRA OVC007 BECMG 0913/0914 15025G35KT 8000 -SHRA OVC007 WS010/18045KT 550103 QNH2968INS BECMG 0915/0916 18030G40KT 9999 VCSH OVC010 530004 QNH2962INS TEMPO 0916/0922 22035G50KT WND 180V260 BECMG 0923/0924 2501
KDAY 
16nm NW 
081737Z 0818/0918 14004KT P6SM SCT250 FM090200 12006KT 5SM -RA BR OVC035 FM090400 12008KT 3SM -RA BR OVC013 FM090900 16015KT 5SM BR VCSH OVC013 WS010/18045KT FM091200 17018G32KT 5SM BR OVC013 WS014/18050KT FM091400 19023G44KT 5SM -SHRA BKN022 WS006/19055KT
NOTAMs
Click for the latest NOTAMs
NOTAMs are issued by the DoD/FAA and will open in a separate window not controlled by AirNav.

 

 
 

Would you like to see your business listed on this page?

 If your business provides an interesting product or service to pilots, flight crews, aircraft, or users of the Hammond Airport, you should consider listing it here.  To start the listing process, click on the button below
 
Add a business
 

Other Pages about Hammond Airport

Update a link
 
Copyright © AirNav, LLC. All rights reserved. Privacy Policy  Contact